Terminal Aerodrome Forecast
Issued by NWS

Home | Current Version | Previous Version | Text Only | Print | Product List | Glossary On
Versions: 1 2 3 4 5 6 7 8 9 10 11 12 13 14 15 16 17 18 19 20 21
000
FTAK31 PAFA 231738
TAFAOT
TAF
PAOT 231738Z 2318/2418 12012KT P6SM VCSH SCT025 BKN050 OVC100
     FM232100 12020KT 6SM -SN BR SCT015 BKN025 OVC035
     FM240000 12025KT 1SM -SN BLSN BR BKN015 OVC025
     FM240600 14018KT 3SM -SHSN BR SCT015 BKN025 OVC050
     FM240900 14015KT P6SM VCSH SCT025 BKN035 OVC050=

USA.gov is the U.S. government's official web portal to all federal, state and local government web resources and services.